createdAt,value
2022-08-25T00:04:36.674Z,3.17
2022-08-25T00:10:40.047Z,2.70
2022-08-25T00:16:43.412Z,3.50
2022-08-25T00:22:45.403Z,3.13
2022-08-25T00:28:47.365Z,2.80
2022-08-25T00:34:49.412Z,2.90
2022-08-25T00:41:05.842Z,3.07
2022-08-25T00:47:09.922Z,3.70
2022-08-25T00:53:12.297Z,3.60
2022-08-25T00:59:16.423Z,2.47
2022-08-25T01:05:19.633Z,3.00
2022-08-25T01:11:21.818Z,2.73
2022-08-25T01:17:27.844Z,3.40
2022-08-25T01:23:30.144Z,3.50
2022-08-25T01:29:33.080Z,3.17
2022-08-25T01:35:36.455Z,3.00
2022-08-25T01:42:11.656Z,3.40
2022-08-25T01:48:15.422Z,4.20
2022-08-25T01:54:17.750Z,3.13
2022-08-25T02:00:21.315Z,3.30
2022-08-25T02:06:32.482Z,3.50
2022-08-25T02:12:36.740Z,3.40
2022-08-25T02:18:38.695Z,3.20
2022-08-25T02:24:40.663Z,4.13
2022-08-25T02:30:43.571Z,4.70
2022-08-25T02:36:45.681Z,4.40
2022-08-25T02:42:49.905Z,3.87
2022-08-25T02:48:53.305Z,4.57
2022-08-25T02:54:55.543Z,4.10
2022-08-25T03:00:57.777Z,4.30
2022-08-25T03:06:59.982Z,3.80
2022-08-25T03:13:02.007Z,3.97
2022-08-25T03:19:04.944Z,4.30
2022-08-25T03:25:28.010Z,4.50
2022-08-25T03:31:30.014Z,4.40
2022-08-25T03:37:32.101Z,4.70
2022-08-25T03:43:34.081Z,4.53
2022-08-25T03:49:36.049Z,4.77
2022-08-25T03:55:38.049Z,4.70
2022-08-25T04:01:43.050Z,5.17
2022-08-25T04:07:45.036Z,4.47
2022-08-25T04:13:48.137Z,6.03
2022-08-25T04:19:50.750Z,4.93
2022-08-25T04:25:53.030Z,5.40
2022-08-25T04:31:55.812Z,4.67
2022-08-25T04:37:57.947Z,4.80
2022-08-25T04:44:01.306Z,4.50
2022-08-25T04:50:03.787Z,5.20
2022-08-25T04:56:09.697Z,4.80
2022-08-25T05:02:11.634Z,5.30
2022-08-25T05:08:13.778Z,4.70
2022-08-25T05:14:21.649Z,4.23
2022-08-25T05:20:27.720Z,4.63
2022-08-25T05:26:32.466Z,5.27
2022-08-25T05:32:34.452Z,5.07
2022-08-25T05:38:37.818Z,4.77
2022-08-25T05:44:42.919Z,4.50
2022-08-25T05:50:55.885Z,4.00
2022-08-25T05:56:58.606Z,5.50
2022-08-25T06:03:01.162Z,4.03
2022-08-25T06:09:06.493Z,4.10
2022-08-25T06:15:09.606Z,4.13
2022-08-25T06:21:14.520Z,4.83
2022-08-25T06:27:16.627Z,4.07
2022-08-25T06:33:18.961Z,3.80
2022-08-25T06:39:21.765Z,4.23
2022-08-25T06:45:24.892Z,4.30
2022-08-25T06:51:27.572Z,3.53
2022-08-25T06:57:29.712Z,4.10
2022-08-25T07:03:33.217Z,3.27
2022-08-25T07:09:38.670Z,3.90
2022-08-25T07:15:43.818Z,3.77
2022-08-25T07:21:49.893Z,4.70
2022-08-25T07:27:56.983Z,4.27
2022-08-25T07:34:19.536Z,4.13
2022-08-25T07:40:32.361Z,4.20
2022-08-25T07:46:34.953Z,4.73
2022-08-25T07:52:37.119Z,5.17
2022-08-25T07:58:42.199Z,4.30
2022-08-25T08:04:45.387Z,4.87
2022-08-25T08:11:03.161Z,4.67
2022-08-25T08:17:09.485Z,5.30
2022-08-25T08:23:12.473Z,5.10
2022-08-25T08:29:15.068Z,6.20
2022-08-25T08:35:18.979Z,6.57
2022-08-25T08:42:17.344Z,6.83
2022-08-25T08:48:46.992Z,7.30
2022-08-25T08:54:56.872Z,7.67
2022-08-25T09:00:59.581Z,8.40
2022-08-25T09:07:11.035Z,7.60
2022-08-25T09:13:48.792Z,8.70
2022-08-25T09:20:29.430Z,8.47
2022-08-25T09:26:58.928Z,7.90
2022-08-25T09:33:05.255Z,8.07
2022-08-25T09:39:07.969Z,8.43
2022-08-25T09:45:14.845Z,7.73
2022-08-25T09:51:38.190Z,8.00
2022-08-25T09:57:52.939Z,7.93
2022-08-25T10:04:05.546Z,9.70
2022-08-25T10:10:41.979Z,9.77
2022-08-25T10:16:46.944Z,8.50
2022-08-25T10:22:51.380Z,9.43
2022-08-25T10:29:06.304Z,8.93
2022-08-25T10:35:32.418Z,8.10
2022-08-25T10:41:53.436Z,9.23
2022-08-25T10:48:41.894Z,8.40
2022-08-25T10:54:57.571Z,8.20
2022-08-25T11:01:18.855Z,8.50
2022-08-25T11:07:40.484Z,7.17
2022-08-25T11:14:09.194Z,7.03
2022-08-25T11:20:27.132Z,6.90
2022-08-25T11:26:36.856Z,7.10
2022-08-25T11:32:44.308Z,6.80
2022-08-25T11:39:11.565Z,6.50
2022-08-25T11:45:19.191Z,6.23
2022-08-25T11:51:45.128Z,6.53
2022-08-25T11:57:53.641Z,5.60
2022-08-25T12:04:34.111Z,5.33
2022-08-25T12:11:11.161Z,4.90
2022-08-25T12:17:25.410Z,5.27
2022-08-25T12:23:36.645Z,5.33
2022-08-25T12:29:47.215Z,5.50
2022-08-25T12:35:57.939Z,5.20
2022-08-25T12:42:12.768Z,5.47
2022-08-25T12:48:27.008Z,5.10
2022-08-25T12:55:11.485Z,5.60
2022-08-25T13:01:54.578Z,4.77
2022-08-25T13:08:15.954Z,5.40
2022-08-25T13:14:34.771Z,4.60
2022-08-25T13:20:40.308Z,5.00
2022-08-25T13:26:52.730Z,4.80
2022-08-25T13:32:54.858Z,4.93
2022-08-25T13:39:45.546Z,5.30
2022-08-25T13:45:50.543Z,4.00
2022-08-25T13:51:55.137Z,5.43
2022-08-25T13:57:59.335Z,5.67
2022-08-25T14:04:50.887Z,5.23
2022-08-25T14:11:14.897Z,5.13
2022-08-25T14:17:36.314Z,7.40
2022-08-25T14:23:40.772Z,5.60
2022-08-25T14:29:42.759Z,5.60
2022-08-25T14:35:53.747Z,5.37
2022-08-25T14:41:55.987Z,5.20
2022-08-25T14:48:10.418Z,5.37
2022-08-25T14:54:18.442Z,5.13
2022-08-25T15:00:21.247Z,5.20
2022-08-25T15:06:29.365Z,4.37
2022-08-25T15:12:46.526Z,4.90
2022-08-25T15:18:50.376Z,5.40
2022-08-25T15:24:52.786Z,5.27
2022-08-25T15:30:54.783Z,4.73
2022-08-25T15:36:58.469Z,5.60
2022-08-25T15:43:01.617Z,6.37
2022-08-25T15:49:05.324Z,6.23
2022-08-25T15:55:11.619Z,6.00
2022-08-25T16:01:19.711Z,5.00
2022-08-25T16:07:21.871Z,5.20
2022-08-25T16:13:24.532Z,5.70
2022-08-25T16:19:29.348Z,5.83
2022-08-25T16:25:32.342Z,6.03
2022-08-25T16:31:34.593Z,5.07
2022-08-25T16:37:36.795Z,6.23
2022-08-25T16:43:39.645Z,5.30
2022-08-25T16:49:42.377Z,5.53
2022-08-25T16:55:45.427Z,5.73
2022-08-25T17:01:47.528Z,6.40
2022-08-25T17:08:09.480Z,5.87
2022-08-25T17:14:18.169Z,5.57
2022-08-25T17:20:20.861Z,5.97
2022-08-25T17:26:27.995Z,5.37
2022-08-25T17:32:31.000Z,5.87
2022-08-25T17:38:33.778Z,8.43
2022-08-25T17:44:35.744Z,6.30
2022-08-25T17:50:40.661Z,5.60
2022-08-25T17:56:42.714Z,6.70
2022-08-25T18:02:45.326Z,9.13
2022-08-25T18:08:51.266Z,12.33
2022-08-25T18:14:54.996Z,5.60
2022-08-25T18:20:57.150Z,7.40
2022-08-25T18:26:59.350Z,6.10
2022-08-25T18:33:01.897Z,5.80
2022-08-25T18:39:23.597Z,6.73
2022-08-25T18:45:48.015Z,7.23
2022-08-25T18:51:50.405Z,6.60
2022-08-25T18:57:52.617Z,6.73
2022-08-25T19:03:54.615Z,8.20
2022-08-25T19:09:56.660Z,6.30
2022-08-25T19:15:59.398Z,7.37
2022-08-25T19:22:01.592Z,6.93
2022-08-25T19:28:09.081Z,7.23
2022-08-25T19:34:21.712Z,7.43
2022-08-25T19:40:25.341Z,7.57
2022-08-25T19:46:37.383Z,7.27
2022-08-25T19:52:40.280Z,6.50
2022-08-25T19:58:44.597Z,7.63
2022-08-25T20:04:50.331Z,8.00
2022-08-25T20:10:53.042Z,7.43
2022-08-25T20:16:58.734Z,7.50
2022-08-25T20:23:19.553Z,6.60
2022-08-25T20:29:21.627Z,8.00
2022-08-25T20:35:28.167Z,8.33
2022-08-25T20:41:30.148Z,8.13
2022-08-25T20:47:32.332Z,7.27
2022-08-25T20:53:37.194Z,8.67
2022-08-25T20:59:39.188Z,7.57
2022-08-25T21:05:43.262Z,7.90
2022-08-25T21:11:46.848Z,6.77
2022-08-25T21:17:54.478Z,7.40
2022-08-25T21:23:56.725Z,7.20
2022-08-25T21:29:59.808Z,7.60
2022-08-25T21:36:02.057Z,7.20
2022-08-25T21:42:07.161Z,7.93
2022-08-25T21:48:10.758Z,7.37
2022-08-25T21:54:18.226Z,9.30
2022-08-25T22:00:26.135Z,8.60
2022-08-25T22:06:29.465Z,7.80
2022-08-25T22:12:31.446Z,7.50
2022-08-25T22:18:33.468Z,7.83
2022-08-25T22:24:35.630Z,7.10
2022-08-25T22:30:38.776Z,7.00
2022-08-25T22:36:42.903Z,7.70
2022-08-25T22:42:48.050Z,7.93
2022-08-25T22:48:51.656Z,8.53
2022-08-25T22:54:54.583Z,9.10
2022-08-25T23:00:58.382Z,8.50
2022-08-25T23:07:00.485Z,8.33
2022-08-25T23:13:02.493Z,7.47
2022-08-25T23:19:13.753Z,8.23
2022-08-25T23:25:17.117Z,8.53
2022-08-25T23:31:20.173Z,8.53
2022-08-25T23:37:23.123Z,9.40
2022-08-25T23:43:25.731Z,8.30
2022-08-25T23:49:27.732Z,8.93
2022-08-25T23:55:34.014Z,8.30
